Time;durP1;ratioP1;P1;durP2;ratioP2;P2;SDS_P1;SDS_P2;PMS_P1;PMS_P2;Temp;Humidity;BMP_temperature;BMP_pressure;BME280_temperature;BME280_humidity;BME280_pressure;Samples;Min_cycle;Max_cycle;Signal;HPM_P1;HPM_P2
2022/04/13 00:00:09;;;;;;;13.18;7.57;;;;;;;10.11;99.61;101530.97;5055404;28;20087;-75
2022/04/13 00:02:56;;;;;;;12.27;7.47;;;;;;;9.71;100.00;101529.28;5053584;28;20441;-75
2022/04/13 00:05:42;;;;;;;11.55;7.60;;;;;;;9.62;100.00;101532.75;5053094;28;20036;-77
2022/04/13 00:08:28;;;;;;;11.05;7.60;;;;;;;9.77;100.00;101526.66;5053843;28;20085;-75
2022/04/13 00:11:13;;;;;;;10.65;7.60;;;;;;;9.57;100.00;101529.28;5053504;28;20029;-76
2022/04/13 00:14:00;;;;;;;10.20;7.57;;;;;;;9.28;100.00;101530.13;5054314;28;20040;-77
2022/04/13 00:16:45;;;;;;;10.18;7.63;;;;;;;9.75;100.00;101524.03;5053151;28;20025;-76
2022/04/13 00:19:31;;;;;;;9.15;6.88;;;;;;;10.14;100.00;101523.97;5053385;28;20130;-77
2022/04/13 00:22:17;;;;;;;12.48;6.80;;;;;;;9.95;100.00;101530.13;5052985;28;20029;-77
2022/04/13 00:25:03;;;;;;;9.68;6.30;;;;;;;9.65;100.00;101522.28;5053517;28;20056;-77
2022/04/13 00:27:49;;;;;;;8.90;6.15;;;;;;;9.99;100.00;101523.13;5054620;28;20039;-76
2022/04/13 00:30:34;;;;;;;8.70;6.50;;;;;;;10.09;99.19;101514.41;5053905;28;20024;-76
2022/04/13 00:33:20;;;;;;;11.13;6.50;;;;;;;9.85;100.00;101520.53;5052968;28;20214;-77
2022/04/13 00:36:06;;;;;;;8.38;6.05;;;;;;;9.66;100.00;101517.94;5053329;28;20049;-75
2022/04/13 00:38:52;;;;;;;7.65;6.07;;;;;;;10.14;99.96;101517.88;5053374;28;20040;-76
2022/04/13 00:41:38;;;;;;;7.80;5.80;;;;;;;10.18;99.83;101514.38;5052600;28;20028;-76
2022/04/13 00:44:26;;;;;;;8.65;6.30;;;;;;;10.08;98.38;101512.66;5053632;28;20029;-76
2022/04/13 00:47:12;;;;;;;8.50;5.68;;;;;;;10.09;100.00;101514.41;5052977;28;20258;-76
2022/04/13 00:49:58;;;;;;;9.15;6.40;;;;;;;9.88;100.00;101515.28;5052803;28;20354;-76
2022/04/13 00:52:46;;;;;;;12.63;6.30;;;;;;;9.75;100.00;101510.97;5054447;28;20036;-76
2022/04/13 00:55:37;;;;;;;8.95;6.22;;;;;;;10.22;96.55;101499.50;5056599;28;20029;-75
2022/04/13 00:58:26;;;;;;;9.20;5.90;;;;;;;10.50;93.82;101499.41;5056135;28;20021;-77
2022/04/13 01:01:11;;;;;;;7.15;5.60;;;;;;;10.41;91.46;101493.34;5056581;28;20036;-77
2022/04/13 01:03:59;;;;;;;9.15;5.82;;;;;;;10.65;90.98;101496.69;5056445;28;20033;-75
2022/04/13 01:06:46;;;;;;;10.98;5.45;;;;;;;10.53;90.85;101485.41;5056319;28;20028;-74
2022/04/13 01:09:32;;;;;;;7.78;5.65;;;;;;;10.83;88.42;101487.84;5056724;28;20408;-75
2022/04/13 01:12:17;;;;;;;7.28;5.70;;;;;;;10.75;88.38;101493.16;5055694;28;20099;-76
2022/04/13 01:15:05;;;;;;;9.63;5.72;;;;;;;10.61;87.21;101489.72;5056565;28;20040;-75
2022/04/13 01:17:50;;;;;;;7.22;5.50;;;;;;;10.65;84.42;101501.94;5056123;28;20025;-76
2022/04/13 01:20:39;;;;;;;8.85;5.57;;;;;;;10.73;83.45;101497.50;5056121;28;20033;-75
2022/04/13 01:23:25;;;;;;;8.20;5.70;;;;;;;10.75;87.15;101498.41;5057244;28;20037;-76
2022/04/13 01:26:11;;;;;;;7.80;5.30;;;;;;;11.08;80.50;101502.53;5056320;28;20025;-76
2022/04/13 01:28:57;;;;;;;9.32;5.22;;;;;;;10.78;83.55;101492.25;5055393;28;20346;-76
2022/04/13 01:31:44;;;;;;;9.55;5.30;;;;;;;10.96;81.79;101500.88;5055757;28;20025;-76
2022/04/13 01:34:30;;;;;;;8.15;5.50;;;;;;;10.21;84.26;101534.44;5055052;28;20028;-75
2022/04/13 01:37:16;;;;;;;9.88;6.00;;;;;;;10.13;98.05;101531.84;5056350;28;20021;-76
2022/04/13 01:40:02;;;;;;;10.82;7.68;;;;;;;9.86;100.00;101558.03;5055384;28;20044;-75
2022/04/13 01:42:49;;;;;;;10.68;8.13;;;;;;;9.87;100.00;101557.16;5055465;28;20020;-76
2022/04/13 01:45:36;;;;;;;12.02;9.00;;;;;;;9.44;100.00;101537.13;5055236;28;20418;-75
2022/04/13 01:48:21;;;;;;;13.27;9.38;;;;;;;8.63;100.00;101556.16;5054667;28;20049;-75
2022/04/13 01:51:07;;;;;;;16.00;9.20;;;;;;;9.38;100.00;101553.72;5056250;28;20365;-75
2022/04/13 01:53:53;;;;;;;13.73;9.52;;;;;;;9.39;100.00;101538.88;5055427;28;20440;-74
2022/04/13 01:56:39;;;;;;;12.23;9.07;;;;;;;9.28;100.00;101543.22;5056436;28;20352;-76
2022/04/13 01:59:24;;;;;;;12.60;8.35;;;;;;;9.45;100.00;101544.13;5055504;28;20063;-75
2022/04/13 02:02:11;;;;;;;15.00;9.23;;;;;;;9.49;100.00;101538.03;5055485;28;20107;-73
2022/04/13 02:04:56;;;;;;;12.18;8.95;;;;;;;9.62;100.00;101537.97;5054318;28;20032;-74
2022/04/13 02:07:42;;;;;;;12.75;9.13;;;;;;;9.81;100.00;101533.63;5056218;28;20021;-75
2022/04/13 02:10:28;;;;;;;13.63;9.00;;;;;;;9.66;100.00;101539.72;5055869;28;20037;-75
2022/04/13 02:13:14;;;;;;;15.18;9.32;;;;;;;9.76;100.00;101543.22;5055123;28;20063;-75
2022/04/13 02:16:00;;;;;;;13.23;9.18;;;;;;;9.71;100.00;101544.97;5055675;28;20025;-75
2022/04/13 02:18:46;;;;;;;16.15;10.10;;;;;;;9.38;100.00;101544.97;5055138;28;20021;-75
2022/04/13 02:21:31;;;;;;;15.45;9.70;;;;;;;9.76;100.00;101532.75;5064640;28;20119;-74
2022/04/13 02:24:17;;;;;;;16.60;9.82;;;;;;;9.31;100.00;101538.88;5061700;28;20122;-77
2022/04/13 02:27:04;;;;;;;16.55;10.30;;;;;;;9.62;100.00;101537.97;5055558;28;20563;-75
2022/04/13 02:29:50;;;;;;;16.13;10.55;;;;;;;9.61;100.00;101535.41;5039417;28;20039;-75
2022/04/13 02:32:40;;;;;;;17.58;11.02;;;;;;;9.28;100.00;101540.59;5055356;28;20067;-75
2022/04/13 02:35:26;;;;;;;22.08;11.63;;;;;;;9.15;100.00;101542.34;5053989;28;20047;-75
2022/04/13 02:38:11;;;;;;;17.15;11.38;;;;;;;8.58;100.00;101543.94;5055163;28;20433;-74
2022/04/13 02:40:57;;;;;;;17.52;11.48;;;;;;;8.37;100.00;101551.69;5053553;28;20075;-74
2022/04/13 02:43:43;;;;;;;17.00;12.43;;;;;;;8.48;100.00;101556.06;5054027;28;20071;-74
2022/04/13 02:46:29;;;;;;;18.30;11.50;;;;;;;8.68;100.00;101557.03;5053906;28;20405;-76
2022/04/13 02:49:14;;;;;;;17.35;11.43;;;;;;;8.64;100.00;101563.09;5055281;28;20025;-75
2022/04/13 02:52:00;;;;;;;19.45;11.02;;;;;;;8.71;100.00;101558.78;5055755;28;20472;-75
2022/04/13 02:54:46;;;;;;;19.33;10.68;;;;;;;8.49;100.00;101567.41;5055345;28;20033;-74
2022/04/13 02:57:32;;;;;;;16.50;11.18;;;;;;;8.35;100.00;101561.22;5055117;28;20431;-76
2022/04/13 03:00:18;;;;;;;17.52;11.63;;;;;;;8.20;100.00;101561.13;5054759;28;20083;-76
2022/04/13 03:03:04;;;;;;;20.10;11.52;;;;;;;8.27;100.00;101570.75;5055422;28;20350;-75
2022/04/13 03:05:50;;;;;;;17.30;11.82;;;;;;;8.30;100.00;101573.41;5054656;28;20088;-74
2022/04/13 03:08:36;;;;;;;20.80;12.20;;;;;;;8.23;100.00;101577.72;5054880;28;20369;-75
2022/04/13 03:11:22;;;;;;;17.35;11.15;;;;;;;8.07;100.00;101582.78;5053066;28;20422;-75
2022/04/13 03:14:07;;;;;;;19.58;12.18;;;;;;;7.98;100.00;101583.63;5061991;28;20167;-75
2022/04/13 03:16:53;;;;;;;23.92;12.38;;;;;;;8.33;100.00;101587.31;5051956;28;20017;-75
2022/04/13 03:19:42;;;;;;;22.73;12.68;;;;;;;8.28;100.00;101591.66;5058185;28;20056;-74
2022/04/13 03:22:28;;;;;;;21.73;13.02;;;;;;;8.30;100.00;101591.66;5061958;28;20090;-75
2022/04/13 03:25:13;;;;;;;17.77;11.60;;;;;;;8.19;100.00;101595.91;5069350;28;20027;-75
2022/04/13 03:28:00;;;;;;;21.20;11.80;;;;;;;8.22;100.00;101599.47;5053779;28;20043;-75
2022/04/13 03:30:46;;;;;;;18.80;11.73;;;;;;;7.99;100.00;101602.75;5053409;28;20095;-74
2022/04/13 03:33:31;;;;;;;21.17;12.55;;;;;;;8.18;100.00;101608.13;5066679;28;20037;-75
2022/04/13 03:36:18;;;;;;;22.80;11.98;;;;;;;8.08;100.00;101608.03;5054679;28;20047;-75
2022/04/13 03:39:04;;;;;;;20.13;11.65;;;;;;;8.20;100.00;101616.81;5059108;28;20087;-75
2022/04/13 03:41:50;;;;;;;16.42;11.75;;;;;;;7.95;100.00;101619.22;5054695;28;20358;-74
2022/04/13 03:44:35;;;;;;;17.45;11.57;;;;;;;8.19;100.00;101622.00;5054202;28;20029;-76
2022/04/13 03:47:21;;;;;;;24.88;12.73;;;;;;;8.33;100.00;101615.19;5054363;28;20504;-75
2022/04/13 03:50:09;;;;;;;22.52;12.73;;;;;;;8.22;100.00;101622.09;5052971;28;20029;-74
2022/04/13 03:52:55;;;;;;;20.85;12.98;;;;;;;8.31;100.00;101632.56;5052708;28;20535;-74
2022/04/13 03:55:41;;;;;;;18.48;12.23;;;;;;;8.17;100.00;101631.59;5055192;28;20449;-75
2022/04/13 03:58:27;;;;;;;21.52;11.55;;;;;;;8.26;100.00;101627.34;5052082;28;20029;-75
2022/04/13 04:01:13;;;;;;;23.85;12.10;;;;;;;7.95;100.00;101637.50;5052545;28;20036;-75
2022/04/13 04:03:59;;;;;;;20.00;11.18;;;;;;;8.20;100.00;101644.66;5054615;28;20032;-76
2022/04/13 04:06:45;;;;;;;15.90;10.60;;;;;;;8.12;100.00;101642.00;5054544;28;20029;-75
2022/04/13 04:09:31;;;;;;;15.77;10.55;;;;;;;8.65;100.00;101647.59;5054679;28;20047;-75
2022/04/13 04:12:17;;;;;;;18.42;10.65;;;;;;;8.52;100.00;101646.63;5052029;28;20410;-76
2022/04/13 04:15:03;;;;;;;16.95;10.77;;;;;;;8.54;100.00;101655.38;5054751;28;20104;-76
2022/04/13 04:17:49;;;;;;;17.05;10.35;;;;;;;8.65;100.00;101656.28;5051974;28;20021;-77
2022/04/13 04:20:34;;;;;;;12.85;9.27;;;;;;;8.34;100.00;101656.97;5056101;28;20373;-74
2022/04/13 04:23:20;;;;;;;23.05;10.10;;;;;;;8.60;100.00;101659.75;5070113;28;20485;-75
2022/04/13 04:26:06;;;;;;;19.45;9.75;;;;;;;8.74;100.00;101661.56;5064043;28;20021;-74
2022/04/13 04:28:52;;;;;;;19.67;11.27;;;;;;;8.87;100.00;101665.97;5057411;28;20438;-75
2022/04/13 04:31:50;;;;;;;17.48;9.82;;;;;;;9.03;100.00;101667.78;5056493;28;20021;-76
2022/04/13 04:34:36;;;;;;;17.50;8.90;;;;;;;8.81;100.00;101672.91;5056814;28;20046;-75
2022/04/13 04:37:22;;;;;;;15.25;9.07;;;;;;;8.98;100.00;101663.41;5056997;28;20029;-76
2022/04/13 04:40:08;;;;;;;12.90;9.63;;;;;;;8.89;100.00;101661.63;5056784;28;20029;-76
2022/04/13 04:42:54;;;;;;;13.93;8.35;;;;;;;9.15;100.00;101664.34;5056508;28;20029;-76
2022/04/13 04:45:40;;;;;;;12.32;7.93;;;;;;;8.92;100.00;101660.78;5056581;28;20437;-77
2022/04/13 04:48:26;;;;;;;21.30;10.80;;;;;;;9.18;100.00;101670.47;5056176;28;20098;-76
2022/04/13 04:51:12;;;;;;;16.05;8.13;;;;;;;9.19;100.00;101660.88;5056064;28;20361;-74
2022/04/13 04:54:02;;;;;;;23.27;10.95;;;;;;;9.40;100.00;101669.66;5055875;28;20123;-74
2022/04/13 04:56:48;;;;;;;18.55;9.68;;;;;;;9.37;100.00;101674.00;5058286;28;20033;-74
2022/04/13 04:59:34;;;;;;;45.70;27.23;;;;;;;9.76;99.65;101676.66;5056457;28;20029;-75
2022/04/13 05:02:20;;;;;;;15.65;7.55;;;;;;;9.50;96.48;101678.38;5057601;28;20350;-75
2022/04/13 05:05:06;;;;;;;10.88;6.82;;;;;;;9.39;97.15;101680.97;5056406;28;20020;-75
2022/04/13 05:07:52;;;;;;;16.77;6.68;;;;;;;9.42;95.96;101690.56;5055334;28;20090;-75
2022/04/13 05:10:38;;;;;;;9.43;6.30;;;;;;;9.52;93.04;101689.72;5056798;28;20032;-75
2022/04/13 05:13:24;;;;;;;14.23;7.30;;;;;;;9.70;92.17;101695.00;5057518;28;20465;-74
2022/04/13 05:16:09;;;;;;;21.95;10.30;;;;;;;9.80;91.17;101696.75;5056584;28;20111;-74
2022/04/13 05:18:55;;;;;;;11.63;7.18;;;;;;;9.80;87.40;101704.59;5055450;28;20028;-75
2022/04/13 05:21:41;;;;;;;10.20;6.20;;;;;;;9.79;86.84;101695.00;5055734;28;20036;-75
2022/04/13 05:24:27;;;;;;;13.45;6.70;;;;;;;10.06;85.35;101702.91;5055571;28;20115;-75
2022/04/13 05:27:13;;;;;;;11.02;6.05;;;;;;;10.09;83.56;101714.25;5056041;28;20112;-74
2022/04/13 05:29:58;;;;;;;10.68;5.75;;;;;;;10.10;80.43;101705.53;5055512;28;20032;-76
2022/04/13 05:32:58;;;;;;;8.60;5.30;;;;;;;10.20;80.08;101701.16;5055942;28;20021;-75
2022/04/13 05:35:45;;;;;;;14.13;6.07;;;;;;;10.34;77.08;101695.91;5055069;28;20094;-75
2022/04/13 05:38:31;;;;;;;6.72;4.80;;;;;;;10.44;75.89;101706.38;5056194;28;20044;-75
2022/04/13 05:41:16;;;;;;;7.97;5.30;;;;;;;10.57;73.77;101702.84;5056650;28;20376;-75
2022/04/13 05:44:02;;;;;;;7.00;5.05;;;;;;;10.52;73.58;101709.88;5054000;28;20446;-74
2022/04/13 05:46:48;;;;;;;9.23;5.38;;;;;;;10.64;72.67;101699.34;5054993;28;20128;-74
2022/04/13 05:49:34;;;;;;;9.73;5.70;;;;;;;10.78;72.37;101710.69;5055089;28;20054;-75
2022/04/13 05:52:20;;;;;;;11.50;7.22;;;;;;;10.94;69.92;101712.41;5055751;28;20032;-75
2022/04/13 05:55:07;;;;;;;12.27;6.00;;;;;;;10.95;69.31;101711.50;5054852;28;20428;-74
2022/04/13 05:57:53;;;;;;;8.10;4.85;;;;;;;10.97;68.08;101707.13;5055661;28;20048;-73
2022/04/13 06:00:39;;;;;;;8.07;5.20;;;;;;;11.10;67.74;101719.34;5055812;28;20029;-75
2022/04/13 06:03:25;;;;;;;10.43;5.20;;;;;;;11.34;66.26;101718.34;5054944;28;20035;-75
2022/04/13 06:06:11;;;;;;;8.20;5.07;;;;;;;11.29;62.79;101713.13;5054835;28;20021;-76
2022/04/13 06:08:56;;;;;;;8.93;5.47;;;;;;;11.33;63.41;101720.09;5057741;28;20211;-73
2022/04/13 06:11:45;;;;;;;12.48;5.10;;;;;;;11.65;62.07;101717.34;5060766;28;20013;-76
2022/04/13 06:14:31;;;;;;;11.55;4.90;;;;;;;11.57;60.01;101713.88;5055156;28;20206;-80
2022/04/13 06:17:17;;;;;;;7.57;4.78;;;;;;;11.61;59.62;101718.25;5055444;28;20025;-75
2022/04/13 06:20:04;;;;;;;9.18;5.07;;;;;;;11.78;59.09;101708.50;5055660;28;20028;-73
2022/04/13 06:22:49;;;;;;;9.68;5.35;;;;;;;11.80;59.11;101715.50;5055689;28;20062;-74
2022/04/13 06:25:35;;;;;;;9.77;4.80;;;;;;;11.72;57.91;101717.28;5054660;28;20358;-74
2022/04/13 06:28:21;;;;;;;9.20;4.43;;;;;;;11.83;58.20;101707.59;5054742;28;20057;-73
2022/04/13 06:31:07;;;;;;;16.65;4.80;;;;;;;12.06;58.45;101716.16;5055376;28;20445;-74
2022/04/13 06:33:53;;;;;;;10.65;4.82;;;;;;;12.36;58.13;101721.19;5055509;28;20032;-74
2022/04/13 06:36:38;;;;;;;15.40;4.70;;;;;;;12.65;56.21;101731.41;5054130;28;20016;-75
2022/04/13 06:39:24;;;;;;;11.05;4.90;;;;;;;12.86;54.44;101726.81;5054663;28;20028;-75
2022/04/13 06:42:10;;;;;;;10.10;5.28;;;;;;;12.49;53.09;101720.19;5054145;28;20032;-75
2022/04/13 06:44:56;;;;;;;6.88;5.10;;;;;;;12.52;53.20;101722.78;5058741;28;20025;-75
2022/04/13 06:47:41;;;;;;;10.98;6.30;;;;;;;12.48;53.73;101721.06;5063828;28;20081;-75
2022/04/13 06:50:27;;;;;;;10.80;8.23;;;;;;;12.66;51.81;101723.50;5055085;28;20025;-76
2022/04/13 06:53:14;;;;;;;8.32;4.30;;;;;;;12.67;50.85;101725.28;5054067;28;20020;-75
2022/04/13 06:56:00;;;;;;;7.00;4.63;;;;;;;12.91;50.05;101727.63;5055808;28;20036;-75
2022/04/13 06:58:48;;;;;;;15.18;4.50;;;;;;;12.74;51.39;101728.72;5054401;28;20029;-76
2022/04/13 07:01:34;;;;;;;7.85;4.30;;;;;;;12.90;50.01;101725.88;5053597;28;20028;-75
2022/04/13 07:04:20;;;;;;;7.90;4.05;;;;;;;12.88;49.43;101722.41;5054215;28;20035;-76
2022/04/13 07:07:06;;;;;;;6.68;3.95;;;;;;;13.14;48.51;101725.66;5054113;28;20132;-76
2022/04/13 07:09:51;;;;;;;5.90;3.97;;;;;;;13.26;48.30;101724.66;5053702;28;20044;-74
2022/04/13 07:12:39;;;;;;;6.03;3.97;;;;;;;13.27;48.01;101729.88;5053387;28;20047;-76
2022/04/13 07:15:25;;;;;;;12.90;9.15;;;;;;;13.16;48.16;101738.78;5054197;28;20028;-74
2022/04/13 07:18:11;;;;;;;6.63;4.25;;;;;;;13.40;47.26;101739.38;5053763;28;20029;-75
2022/04/13 07:20:56;;;;;;;5.63;3.70;;;;;;;13.58;47.56;101728.59;5054064;28;20357;-75
2022/04/13 07:23:42;;;;;;;4.97;3.78;;;;;;;13.48;45.90;101729.63;5053288;28;20095;-75
2022/04/13 07:26:28;;;;;;;7.10;4.30;;;;;;;13.57;44.94;101732.13;5053667;28;20036;-75
2022/04/13 07:29:14;;;;;;;6.80;3.65;;;;;;;13.68;45.09;101724.06;5053406;28;20033;-74
2022/04/13 07:32:00;;;;;;;8.93;4.07;;;;;;;13.87;45.56;101736.94;5053606;28;20043;-75
2022/04/13 07:34:45;;;;;;;6.53;3.95;;;;;;;13.41;45.73;101737.59;5053520;28;20388;-76
2022/04/13 07:37:32;;;;;;;5.85;3.70;;;;;;;13.58;44.31;101732.97;5054578;28;20033;-74
2022/04/13 07:40:18;;;;;;;10.57;3.88;;;;;;;13.98;45.03;101737.66;5053989;28;20067;-76
2022/04/13 07:43:04;;;;;;;6.53;3.90;;;;;;;14.27;45.09;101738.09;5053304;28;20029;-76
2022/04/13 07:45:49;;;;;;;7.47;4.30;;;;;;;14.11;44.69;101730.44;5055047;28;20057;-72
2022/04/13 07:48:35;;;;;;;8.63;4.40;;;;;;;14.15;45.38;101738.25;5053145;28;20132;-76
2022/04/13 07:51:21;;;;;;;6.90;3.83;;;;;;;14.70;43.98;101740.88;5053419;28;20036;-76
2022/04/13 07:54:07;;;;;;;7.57;4.10;;;;;;;14.44;45.29;101740.47;5053231;28;20082;-75
2022/04/13 07:56:53;;;;;;;5.90;4.30;;;;;;;14.63;44.02;101733.97;5053534;28;20330;-76
2022/04/13 07:59:39;;;;;;;6.80;4.00;;;;;;;15.16;43.21;101727.66;5055039;28;20419;-74
2022/04/13 08:02:25;;;;;;;7.18;4.40;;;;;;;14.98;43.36;101734.19;5056093;28;20036;-75
2022/04/13 08:05:12;;;;;;;6.05;3.85;;;;;;;14.98;44.79;101733.31;5057845;28;20021;-75
2022/04/13 08:07:58;;;;;;;8.43;4.15;;;;;;;15.70;42.74;101729.16;5058465;28;20025;-75
2022/04/13 08:10:45;;;;;;;6.28;4.07;;;;;;;15.34;42.09;101722.88;5057638;28;20033;-75
2022/04/13 08:13:31;;;;;;;9.60;4.50;;;;;;;16.00;42.32;101718.78;5057852;28;20497;-74
2022/04/13 08:16:17;;;;;;;9.85;4.30;;;;;;;16.06;41.65;101731.84;5058095;28;20020;-72
2022/04/13 08:19:05;;;;;;;14.35;7.00;;;;;;;16.30;41.33;101728.59;5058093;28;20342;-73
2022/04/13 08:21:51;;;;;;;22.05;14.57;;;;;;;16.38;40.88;101734.56;5058143;28;20432;-75
2022/04/13 08:24:37;;;;;;;5.65;4.20;;;;;;;16.54;40.89;101728.03;5055480;28;20422;-73
2022/04/13 08:27:22;;;;;;;5.57;3.80;;;;;;;16.77;39.52;101728.28;5056509;28;20098;-73
2022/04/13 08:30:08;;;;;;;6.97;3.40;;;;;;;17.17;39.75;101728.94;5056864;28;20156;-74
2022/04/13 08:32:54;;;;;;;6.03;3.88;;;;;;;16.88;39.97;101725.34;5056803;28;20021;-75
2022/04/13 08:35:40;;;;;;;6.50;3.80;;;;;;;16.27;38.70;101722.53;5058090;28;20097;-73
2022/04/13 08:38:26;;;;;;;5.13;3.83;;;;;;;16.36;39.74;101720.50;5056230;28;20104;-73
2022/04/13 08:41:16;;;;;;;11.15;3.70;;;;;;;17.31;39.36;101715.25;5056101;28;20090;-74
2022/04/13 08:44:07;;;;;;;7.50;3.65;;;;;;;17.25;38.70;101715.47;5055881;28;20032;-73
2022/04/13 08:46:57;;;;;;;7.75;3.50;;;;;;;16.55;39.43;101716.53;5056175;28;20037;-74
2022/04/13 08:49:45;;;;;;;6.68;3.80;;;;;;;16.90;38.83;101723.53;5056648;28;20029;-74
2022/04/13 08:52:32;;;;;;;10.63;3.95;;;;;;;17.15;38.45;101706.91;5057614;28;20542;-74
2022/04/13 08:55:21;;;;;;;6.60;3.95;;;;;;;16.76;38.02;101709.81;5056574;28;20021;-74
2022/04/13 08:58:33;;;;;;;4.65;3.45;;;;;;;17.30;37.76;101708.25;5056543;28;20051;-73
2022/04/13 09:01:28;;;;;;;6.80;3.72;;;;;;;17.45;37.49;101708.69;5056862;28;20083;-74
2022/04/13 09:04:16;;;;;;;8.20;3.60;;;;;;;17.60;37.94;101699.44;5069668;28;20092;-72
2022/04/13 09:07:03;;;;;;;5.97;3.45;;;;;;;16.69;36.76;101703.81;5070919;28;20013;-72
2022/04/13 09:09:53;;;;;;;6.25;3.63;;;;;;;16.68;37.24;101695.91;5060087;28;20040;-73
2022/04/13 09:12:39;;;;;;;5.50;3.47;;;;;;;16.53;38.14;101698.97;5055498;28;20036;-73
2022/04/13 09:15:26;;;;;;;5.50;3.72;;;;;;;17.22;38.35;101689.94;5055976;28;20020;-73
2022/04/13 09:18:12;;;;;;;5.50;3.95;;;;;;;16.92;37.39;101684.66;5055627;28;20416;-73
2022/04/13 09:20:59;;;;;;;6.93;4.07;;;;;;;17.49;37.69;101683.81;5055692;28;20040;-74
2022/04/13 09:23:45;;;;;;;6.05;4.03;;;;;;;17.13;37.01;101678.75;5056073;28;20050;-74
2022/04/13 09:26:31;;;;;;;6.75;3.67;;;;;;;16.60;37.42;101676.72;5055476;28;20044;-73
2022/04/13 09:29:17;;;;;;;6.35;3.42;;;;;;;17.34;36.78;101671.03;5056823;28;20029;-74
2022/04/13 09:32:03;;;;;;;5.30;3.30;;;;;;;17.38;37.15;101664.72;5055575;28;20107;-74
2022/04/13 09:34:51;;;;;;;4.45;3.20;;;;;;;17.30;38.29;101660.56;5056082;28;20028;-74
2022/04/13 09:37:37;;;;;;;5.60;4.05;;;;;;;17.07;36.12;101663.00;5056667;28;20090;-74
2022/04/13 09:40:32;;;;;;;5.65;3.28;;;;;;;16.84;36.15;101661.03;5056375;28;20053;-74
2022/04/13 09:43:20;;;;;;;5.18;2.90;;;;;;;16.97;35.77;101656.25;5055720;28;20104;-73
2022/04/13 09:46:06;;;;;;;7.80;3.55;;;;;;;17.08;35.76;101655.03;5056037;28;20021;-74
2022/04/13 09:49:07;;;;;;;6.32;3.55;;;;;;;16.77;36.25;101661.25;5055288;28;20060;-73
2022/04/13 09:51:56;;;;;;;8.32;3.33;;;;;;;16.57;35.21;101660.91;5056257;28;20082;-73
2022/04/13 09:54:46;;;;;;;6.13;4.18;;;;;;;16.46;35.50;101657.69;5054631;28;20036;-74
2022/04/13 09:57:35;;;;;;;6.93;4.45;;;;;;;16.46;36.77;101658.56;5054957;28;20078;-73
2022/04/13 10:00:21;;;;;;;5.32;3.20;;;;;;;16.75;36.66;101647.16;5055892;28;20029;-72
2022/04/13 10:03:08;;;;;;;6.15;3.10;;;;;;;16.36;36.98;101642.94;5055701;28;20119;-73
2022/04/13 10:05:55;;;;;;;6.32;3.55;;;;;;;16.99;37.08;101634.13;5053164;28;20120;-73
2022/04/13 10:08:41;;;;;;;5.43;3.30;;;;;;;16.85;36.27;101638.97;5054669;28;20036;-74
2022/04/13 10:11:27;;;;;;;6.15;4.15;;;;;;;16.17;35.61;101645.22;5054592;28;20036;-74
2022/04/13 10:14:18;;;;;;;4.63;3.50;;;;;;;15.98;35.80;101635.13;5055234;28;20025;-74
2022/04/13 10:17:09;;;;;;;5.25;3.55;;;;;;;16.56;35.97;101632.72;5054263;28;20025;-74
2022/04/13 10:19:57;;;;;;;4.43;3.28;;;;;;;16.67;36.64;101639.47;5054794;28;20116;-74
2022/04/13 10:22:59;;;;;;;7.38;3.33;;;;;;;17.18;35.82;101629.16;5055440;28;20410;-75
2022/04/13 10:25:45;;;;;;;7.78;3.95;;;;;;;17.35;35.64;101626.84;5055367;28;20111;-74
2022/04/13 10:28:31;;;;;;;6.15;3.55;;;;;;;17.36;35.93;101629.44;5054740;28;20111;-74
2022/04/13 10:31:17;;;;;;;4.65;3.03;;;;;;;17.12;35.88;101627.53;5054410;28;20346;-75
2022/04/13 10:34:03;;;;;;;4.30;3.17;;;;;;;17.62;35.28;101631.31;5054384;28;20064;-75
2022/04/13 10:36:49;;;;;;;6.43;3.47;;;;;;;17.24;36.56;101628.97;5054624;28;20033;-75
2022/04/13 10:39:35;;;;;;;6.75;3.67;;;;;;;17.17;35.99;101616.81;5054351;28;20466;-76
2022/04/13 10:42:21;;;;;;;4.53;3.30;;;;;;;16.69;36.54;101634.13;5054461;28;20099;-75
2022/04/13 10:45:08;;;;;;;4.72;3.60;;;;;;;16.61;36.09;101621.13;5054234;28;20036;-74
2022/04/13 10:47:59;;;;;;;7.65;5.20;;;;;;;16.98;36.17;101615.63;5053725;28;20385;-75
2022/04/13 10:50:53;;;;;;;7.43;4.47;;;;;;;16.71;36.08;101616.41;5055432;28;20063;-75
2022/04/13 10:53:48;;;;;;;4.03;3.30;;;;;;;17.21;35.90;101614.06;5054467;28;20465;-75
2022/04/13 10:56:34;;;;;;;4.78;3.72;;;;;;;16.97;35.78;101616.53;5053793;28;20036;-74
2022/04/13 10:59:27;;;;;;;5.45;3.40;;;;;;;16.86;37.19;101626.56;5053994;28;20119;-75
2022/04/13 11:02:57;;;;;;;5.72;3.75;;;;;;;16.98;36.74;101600.63;5054087;28;20060;-76
2022/04/13 11:05:43;;;;;;;5.70;3.58;;;;;;;17.07;36.99;101605.63;5020875;28;20044;-74
2022/04/13 11:08:37;;;;;;;6.25;3.58;;;;;;;17.12;37.48;101609.00;5053664;28;20029;-74
2022/04/13 11:11:27;;;;;;;6.57;3.60;;;;;;;18.22;37.01;101613.38;5040534;28;20125;-74
2022/04/13 11:14:19;;;;;;;5.88;3.55;;;;;;;17.13;36.80;101609.88;5053729;28;20029;-74
2022/04/13 11:17:05;;;;;;;6.82;3.67;;;;;;;16.83;36.60;101598.41;5055299;28;20024;-74
2022/04/13 11:19:51;;;;;;;5.35;3.35;;;;;;;16.91;36.63;101604.34;5054952;28;20033;-75
2022/04/13 11:22:37;;;;;;;5.60;3.30;;;;;;;17.18;37.29;101603.53;5054424;28;20056;-75
2022/04/13 11:25:46;;;;;;;6.47;3.50;;;;;;;17.19;37.50;101605.25;5053742;28;20037;-74
2022/04/13 11:28:32;;;;;;;6.35;3.80;;;;;;;17.24;36.52;101594.53;5064410;28;20117;-74
2022/04/13 11:31:18;;;;;;;6.57;3.83;;;;;;;17.88;35.70;101594.25;5065391;28;20031;-75
2022/04/13 11:34:06;;;;;;;5.32;3.40;;;;;;;18.00;35.84;101585.84;5054324;28;20028;-75
2022/04/13 11:36:52;;;;;;;5.97;3.83;;;;;;;17.95;36.20;101587.78;5052765;28;20017;-76
2022/04/13 11:40:02;;;;;;;4.60;3.70;;;;;;;18.23;35.85;101589.47;5054162;28;20102;-75
2022/04/13 11:42:48;;;;;;;6.22;3.78;;;;;;;17.80;36.47;101586.53;5054770;28;20061;-75
2022/04/13 11:45:36;;;;;;;6.75;4.70;;;;;;;18.19;35.90;101571.91;5053363;28;20035;-75
2022/04/13 11:48:35;;;;;;;4.57;4.10;;;;;;;17.94;36.91;101573.69;5053354;28;20052;-75
2022/04/13 11:51:32;;;;;;;5.88;3.70;;;;;;;18.31;36.19;101578.56;5053797;28;20033;-76
2022/04/13 11:54:18;;;;;;;11.68;3.88;;;;;;;17.41;37.21;101569.25;5053166;28;20040;-76
2022/04/13 11:57:03;;;;;;;4.72;3.38;;;;;;;17.94;36.98;101570.16;5052867;28;20075;-76
2022/04/13 11:59:52;;;;;;;7.65;3.90;;;;;;;17.84;37.20;101561.66;5052863;28;20033;-76
2022/04/13 12:02:38;;;;;;;5.10;3.33;;;;;;;18.10;36.58;101560.75;5052931;28;20061;-75
2022/04/13 12:05:24;;;;;;;5.57;3.45;;;;;;;18.45;36.85;101555.09;5053769;28;20033;-76
2022/04/13 12:08:15;;;;;;;5.45;3.60;;;;;;;18.15;36.04;101554.38;5052726;28;20100;-74
2022/04/13 12:11:03;;;;;;;4.80;3.47;;;;;;;17.81;36.68;101561.75;5053072;28;20056;-73
2022/04/13 12:13:54;;;;;;;4.50;2.97;;;;;;;17.70;35.77;101561.25;5052833;28;20079;-76
2022/04/13 12:16:40;;;;;;;4.60;2.97;;;;;;;18.28;35.01;101554.78;5054029;28;20025;-78
2022/04/13 12:19:37;;;;;;;3.90;2.80;;;;;;;17.75;36.38;101554.00;5052889;28;20040;-74
2022/04/13 12:22:23;;;;;;;4.90;3.22;;;;;;;17.89;36.32;101546.44;5054792;28;20033;-75
2022/04/13 12:25:10;;;;;;;3.78;2.92;;;;;;;17.69;36.85;101545.41;5053974;28;20017;-76
2022/04/13 12:28:03;;;;;;;4.88;3.17;;;;;;;17.99;36.50;101525.78;5054462;28;20345;-73
2022/04/13 12:31:09;;;;;;;7.90;4.82;;;;;;;17.86;37.35;101543.03;5052398;28;20099;-75
2022/04/13 12:34:01;;;;;;;4.88;3.25;;;;;;;17.86;36.68;101541.28;5052763;28;20455;-74
2022/04/13 12:37:06;;;;;;;4.30;3.22;;;;;;;17.73;36.14;101533.78;5054198;28;20095;-75
2022/04/13 12:39:52;;;;;;;5.07;3.00;;;;;;;18.33;35.85;101518.38;5040119;28;20373;-76
2022/04/13 12:42:37;;;;;;;7.50;3.28;;;;;;;18.45;36.38;101528.56;5052264;28;20033;-75
2022/04/13 12:45:29;;;;;;;5.03;3.60;;;;;;;18.37;36.80;101517.38;5053304;28;20484;-74
2022/04/13 12:48:15;;;;;;;6.13;3.58;;;;;;;18.57;36.10;101526.31;5054557;28;20461;-74
2022/04/13 12:51:03;;;;;;;5.72;3.28;;;;;;;18.45;35.53;101512.66;5055962;28;20033;-74
2022/04/13 12:53:53;;;;;;;4.88;3.33;;;;;;;18.19;35.59;101518.88;5055987;28;20132;-74